航空気象通報

ウインドサーファーのための航空気象通報による風予報です。

6/30-7/1の航空気象通報(国内、海外)

2011年06月30日 22時23分10秒 | TAF

羽田空港
TAF AMD TAF
      AMD RJTT 301306Z 3013/0112 02005KT 9999 FEW020 SCT030
      TEMPO 3018/3021 4000 BR
      BECMG 3021/3024 10006KT
      BECMG 0103/0106 16010KT
日本時間30日22時-1日03時:020度から5ノットの風
03-06時:風が変化
06-12時:100度から6ノットの風
12-15時:風が変化
15-21時:160度から10ノットの風

富士山静岡空港
TAF RJNS 300841Z 3009/0112 25010KT 9999 FEW030
日本時間30日18時-1日21時:250度から10ノットの風

福岡空港
TAF RJFF 300849Z 3009/0112 16007KT 8000 -SHRA FEW020 SCT030 BKN040
      TEMPO 3015/3021 3000 SHRA BR
      TEMPO 3021/3024 3000 TSRA BR FEW010 SCT020 BKN030 FEW030CB
      BECMG 0100/0103 30007KT
日本時間30日18時-1日09時:160度から7ノットの風
09-12時:風が変化
12-21時:300度から7ノットの風

但し、1日06-09時の間:一時、

那覇空港
TAF ROAH 300839Z 3009/0112 17009KT 9999 SCT015
日本時間30日18時-1日21時:170度から9ノットの風

マウイのカフルイ空港
PHOG 301120Z 3012/0112 06009KT P6SM FEW035
     FM302000 05017G25KT P6SM SCT050
     FM010500 05011KT P6SM FEW045
ハワイ時間30日02-10時:060度から9ノットの風
10-19時:050度から17ノット、突風25ノット
19時-1日02時:050度から11ノットの風

サイパン空港
TAF PGSN 301120Z 3012/0112 11005KT P6SM VCSH SCT018
     FM010100 12009KT P6SM VCSH SCT020 SCT050
マリアナ時間30日22時-1日11時:110度から5ノットの風
11-22時:120度から9ノットの風

コメント

6/29-6/30の航空気象通報(国内、海外)

2011年06月29日 22時36分05秒 | TAF

羽田空港
TAF RJTT 290850Z 2909/3012 13008KT 9999 FEW030
      BECMG 2912/2914 35004KT
      BECMG 2921/2924 15010KT
日本時間29日18-21時:130度から8ノットの風
21-23時:風が変化
23時-30日06時:350度から4ノットの風
06-09時:風が変化
09-21時:150度から10ノットの風

富士山静岡空港
TAF RJNS 290839Z 2909/3012 07006KT 9999 FEW030
      BECMG 2913/2915 36004KT
      BECMG 3003/3006 24012KT
日本時間29日18-22時:070度から6ノットの風
22-24時:風が変化
30日00-12時:360度から4ノットの風
12-15時:風が変化
15-21時:240度から12ノットの風

福岡空港
TAF RJFF 290848Z 2909/3012 31007KT 9999 FEW030
      BECMG 2910/2912 15005KT
      TEMPO 3003/3006 3000 TSRA BR FEW007 SCT010 BKN020 FEW025CB
日本時間29日18-19時:310度から7ノットの風
19-21時:風が変化
21時-30日21時:150度から5ノットの風

但し、30日12-15時の間:一時、

那覇空港
TAF AMD ROAH 291014Z 2910/3012 15009KT 9999 SCT015
日本時間29日19時-30日21時:150度から9ノットの風

マウイのカフルイ空港
TAF PHOG 291140Z 2912/3012 05010KT P6SM FEW030 SCT045
     FM292000 05016G25KT P6SM FEW035 SCT045
     FM300500 05012KT P6SM FEW045
     FM300800 04009KT P6SM FEW045
ハワイ時間29日02-10時:050度から10ノットの風
10-19時:060度から16ノット、突風25ノット
19-22時:050度から12ノットの風
22時-30日02時:040度から9ノットの風

サイパン空港
TAF PGSN 291121Z 2912/3012 06007KT P6SM VCSH SCT020 SCT040
     FM300100 10013KT P6SM VCSH SCT022 SCT050
マリアナ時間29日22時-30日11時:060度から7ノットの風
11-22時:100度から13ノットの風

コメント

6/28-6/29の航空気象通報(国内、海外)

2011年06月28日 22時21分37秒 | TAF

羽田空港
TAF RJTT 280842Z 2809/2912 16010KT 9999 FEW030
      BECMG 2814/2816 36005KT
      BECMG 2900/2903 12007KT
      BECMG 2906/2909 18010KT
日本時間28日18-23時:160度から10ノットの風
23時-29日01時:風が変化
01-09時:360度から5ノットの風
09-12時:風が変化
12-18時:120度から7ノットの風
18-21時:風が変化
21時:180度から10ノットの風

富士山静岡空港
TAF RJNS 280839Z 2809/2912 25012KT 9999 FEW030
      TEMPO 2809/2811 25015G25KT
日本時間28日19時-29日21時:250度から12ノットの風
但し、28日18-20時の間:一時、250度から15ノット、突風25ノット

福岡空港
TAF RJFF 280854Z 2809/2912 16006KT 9999 FEW030 SCT045
      BECMG 2903/2906 32008KT
日本時間28日18時-29日12時:160度から6ノットの風
12-15時:風が変化
15-21時:320度から8ノットの風

那覇空港
TAF ROAH 280849Z 2809/2912 14009KT 9999 FEW010 SCT020
日本時間28日18時-29日21時:140度から9ノットの風

マウイのカフルイ空港
TAF PHOG 281137Z 2812/2912 04011KT P6SM VCSH FEW040 SCT050 SCT250
     FM281900 05017G26KT P6SM FEW045 BKN250
     FM290500 05013G20KT P6SM FEW045
     FM290800 05009KT P6SM SCT045
ハワイ時間28日02-09時:040度から11ノットの風

09-19時:060度から20ノット、突風28ノット

19-22時:050度から13ノット、突風20ノット
22時-29日02時:050度から9ノットの風

サイパン空港
TAF PGSN 281120Z 2812/2912 08011KT P6SM VCSH SCT022
マリアナ時間28日22時-29日22時:080度から11ノットの風

コメント

6/27-6/28の航空気象通報(国内、海外)

2011年06月27日 21時15分35秒 | TAF

羽田空港
TAF AMD RJTT 271037Z 2710/2812 05005KT 4000 BR FEW008 BKN015
      BECMG 2711/2713 FEW004 BKN009
      TEMPO 2713/2721 FEW004 BKN006
      BECMG 2721/2724 16005KT 8000 NSW
      BECMG 2803/2806 17016KT FEW020
日本時間27日19時-28日06時:050度から5ノットの風
06-09時:風が変化
09-12時:160度から5ノットの風
12-15時:風が変化
15-21時:170度から16ノットの風
、28日06-09時の後、

富士山静岡空港
TAF RJNS 270844Z 2709/2812 24010KT 9999 FEW008 BKN012
      BECMG 2709/2711 FEW005 BKN008
      BECMG 2800/2803 FEW008 SCT015
日本時間27日18時-28日21時:240度から10ノットの風
、28日09-12時の後、

福岡空港
TAF RJFF 270847Z 2709/2812 16011KT 9999 -SHRA FEW005 SCT010 BKN030
      BECMG 2803/2806 23006KT
日本時間27日18時-28日12時:160度から11ノットの風
12-15:風が変化
15-21時:230度から6ノットの風

那覇空港
TAF ROAH 270842Z 2709/2812 16011KT 9999 SCT015
日本時間27日18時-28日21時:160度から11ノットの風

マウイのカフルイ空港
TAF PHOG 271128Z 2712/2812 05010KT P6SM FEW050
     FM271700 05012G20KT P6SM FEW035 SCT050
     FM272000 05018G28KT P6SM FEW035 SCT050
     FM280500 05012G22KT P6SM FEW035 SCT050
     FM280900 05010KT P6SM SCT050
ハワイ時間27日02-07時:050度から10ノットの風
07-10時:050度から12ノット、突風20ノット
10-19時:050度から18ノット、突風28ノット
20-23時:050度から12ノット、突風22ノット
23時-28日02時:050度から10ノットの風

サイパン空港
TAF PGSN 271137Z 2712/2812 09011KT P6SM VCSH FEW022 SCT120
マリアナ時間27日22時-28日22時:090度から11ノットの風

コメント

6/26-6/27の航空気象通報(国内、海外)

2011年06月26日 22時47分50秒 | TAF

羽田空港
TAF RJTT 260838Z 2609/2712 05008KT 9999 FEW003 BKN015
      TEMPO 2609/2615 3000 -RA BR FEW002 BKN004
      BECMG 2614/2616 20010KT
      TEMPO 2703/2712 19020G30KT
日本時間26日18-23時:050度から8ノットの風
23時-27日01時:風が変化
01-21時:200度から10ノットの風
但し、27日12-21時の間:一時、190度から20ノット、突風30ノット

但し、26日18-24時の間:一時、

富士山静岡空港
TAF RJNS 260838Z 2609/2712 24008KT 9999 FEW010 SCT020
      TEMPO 2615/2624 1200 BR BCFG FEW003 BKN005
      TEMPO 2703/2709 4000 SHRA BR
日本時間26日18時-27日21時:240度から8ノットの風

但し、27日00-09時の間:一時、霧、もや
但し、27日12-24時の間:一時、

福岡空港
TAF RJFF 260849Z 2609/2712 17015KT 8000 -SHRA FEW007 SCT010 BKN020
      TEMPO 2609/2611 17015G25KT
      TEMPO 2611/2614 17015G25KT 1500 +TSRA BR FEW005 SCT007 BKN020 FEW020CB
      TEMPO 2614/2616 1500 +TSRA BR FEW005 SCT007 BKN020 FEW020CB
      TEMPO 2616/2624 3000 +SHRA BR
      TEMPO 2700/2706 4000 SHRA BR
日本時間26日18時-27日21時:170度から15ノットの風
但し、26日18-23時:一時、170度から15ノット、突風25ノット

但し、26日23時-27日01時の間:一時、

那覇空港
TAF ROAH 260849Z 2609/2712 18013KT 9999 FEW010 SCT020
日本時間26日18時-27日21時:180度から13ノットの風

マウイのカフルイ空港
TAF PHOG 261120Z 2612/2712 05014G22KT P6SM SCT050
     FM262000 06020G28KT P6SM FEW035 SCT050
     FM270600 05014G22KT P6SM SCT050
ハワイ時間26日02-10時:050度から14ノット、突風22ノット
10-20時:060度から20ノット、突風28ノット
20時-27日02時:050度から14ノット、突風22ノット

サイパン空港
TAF PGSN 261134Z 2612/2712 07011KT P6SM VCSH SCT020 SCT120
マリアナ時間26日22時-27日22時:070度から11ノットの風

コメント